createdAt,value
2023-06-10T00:01:41.630Z,20.21
2023-06-10T00:04:08.221Z,19.85
2023-06-10T00:06:37.526Z,20.01
2023-06-10T00:09:05.927Z,19.66
2023-06-10T00:11:33.612Z,19.57
2023-06-10T00:14:00.912Z,19.60
2023-06-10T00:16:27.735Z,19.63
2023-06-10T00:18:56.685Z,19.29
2023-06-10T00:21:23.289Z,18.94
2023-06-10T00:23:50.690Z,19.02
2023-06-10T00:26:17.376Z,19.12
2023-06-10T00:28:45.875Z,19.01
2023-06-10T00:31:12.497Z,19.18
2023-06-10T00:33:38.979Z,19.43
2023-06-10T00:36:05.594Z,19.21
2023-06-10T00:38:32.891Z,18.89
2023-06-10T00:40:59.322Z,18.90
2023-06-10T00:43:25.870Z,18.80
2023-06-10T00:45:52.997Z,19.04
2023-06-10T00:48:19.756Z,19.19
2023-06-10T00:50:47.721Z,19.10
2023-06-10T00:53:14.335Z,19.09
2023-06-10T00:55:42.065Z,19.34
2023-06-10T00:58:08.994Z,19.33
2023-06-10T01:00:35.612Z,19.01
2023-06-10T01:03:02.168Z,18.81
2023-06-10T01:05:28.696Z,18.82
2023-06-10T01:08:08.242Z,19.17
2023-06-10T01:10:40.690Z,19.32
2023-06-10T01:13:09.364Z,19.17
2023-06-10T01:15:36.468Z,19.31
2023-06-10T01:18:09.820Z,19.22
2023-06-10T01:20:40.883Z,19.10
2023-06-10T01:23:08.034Z,18.88
2023-06-10T01:25:45.225Z,18.72
2023-06-10T01:28:32.368Z,18.69
2023-06-10T01:31:43.088Z,18.52
2023-06-10T01:34:15.382Z,18.60
2023-06-10T01:36:42.461Z,18.59
2023-06-10T01:39:10.016Z,18.50
2023-06-10T01:41:36.700Z,18.56
2023-06-10T01:44:03.723Z,18.66
2023-06-10T01:46:30.302Z,18.63
2023-06-10T01:48:57.039Z,18.54
2023-06-10T01:51:23.493Z,18.57
2023-06-10T01:53:50.070Z,18.67
2023-06-10T01:56:19.026Z,18.89
2023-06-10T01:58:45.711Z,18.77
2023-06-10T02:01:12.502Z,18.76
2023-06-10T02:03:39.132Z,18.62
2023-06-10T02:06:05.783Z,18.46
2023-06-10T02:08:32.232Z,18.65
2023-06-10T02:10:58.676Z,18.64
2023-06-10T02:13:25.120Z,18.56
2023-06-10T02:15:51.560Z,18.19
2023-06-10T02:18:21.597Z,18.06
2023-06-10T02:20:48.114Z,17.96
2023-06-10T02:23:14.806Z,18.05
2023-06-10T02:25:41.355Z,17.92
2023-06-10T02:28:08.086Z,17.84
2023-06-10T02:30:34.575Z,17.91
2023-06-10T02:33:02.259Z,17.98
2023-06-10T02:35:28.797Z,18.23
2023-06-10T02:37:55.335Z,18.26
2023-06-10T02:40:21.884Z,17.95
2023-06-10T02:42:48.321Z,18.01
2023-06-10T02:45:15.228Z,18.13
2023-06-10T02:47:42.674Z,17.93
2023-06-10T02:50:09.659Z,17.83
2023-06-10T02:52:36.167Z,17.91
2023-06-10T02:55:02.626Z,17.89
2023-06-10T02:57:29.060Z,18.11
2023-06-10T02:59:55.672Z,18.12
2023-06-10T03:02:22.666Z,18.12
2023-06-10T03:04:51.728Z,17.99
2023-06-10T03:07:19.757Z,17.38
2023-06-10T03:09:46.242Z,17.46
2023-06-10T03:12:12.831Z,17.54
2023-06-10T03:14:39.813Z,17.34
2023-06-10T03:17:07.145Z,17.44
2023-06-10T03:19:34.591Z,17.21
2023-06-10T03:22:11.148Z,17.46
2023-06-10T03:24:40.932Z,17.22
2023-06-10T03:27:08.706Z,17.03
2023-06-10T03:29:35.221Z,17.16
2023-06-10T03:32:02.155Z,17.17
2023-06-10T03:34:28.698Z,17.25
2023-06-10T03:36:55.146Z,17.31
2023-06-10T03:39:21.626Z,17.22
2023-06-10T03:41:48.099Z,17.15
2023-06-10T03:44:14.930Z,17.11
2023-06-10T03:46:41.444Z,17.30
2023-06-10T03:49:08.225Z,17.55
2023-06-10T03:51:36.787Z,17.48
2023-06-10T03:54:03.411Z,17.37
2023-06-10T03:56:30.035Z,17.20
2023-06-10T03:58:56.850Z,17.23
2023-06-10T04:01:24.444Z,17.14
2023-06-10T04:03:52.425Z,17.21
2023-06-10T04:06:18.950Z,17.13
2023-06-10T04:08:45.893Z,17.25
2023-06-10T04:11:12.355Z,17.34
2023-06-10T04:13:38.891Z,17.34
2023-06-10T04:16:05.789Z,17.47
2023-06-10T04:18:32.245Z,17.18
2023-06-10T04:20:58.691Z,17.37
2023-06-10T04:23:25.658Z,17.34
2023-06-10T04:25:52.129Z,17.25
2023-06-10T04:28:18.598Z,17.31
2023-06-10T04:30:46.003Z,17.50
2023-06-10T04:33:12.469Z,17.47
2023-06-10T04:35:38.925Z,17.45
2023-06-10T04:38:05.432Z,17.47
2023-06-10T04:40:31.935Z,17.31
2023-06-10T04:42:58.372Z,17.38
2023-06-10T04:45:24.872Z,17.62
2023-06-10T04:47:51.436Z,17.76
2023-06-10T04:50:17.980Z,17.77
2023-06-10T04:52:45.549Z,17.88
2023-06-10T04:55:12.499Z,17.86
2023-06-10T04:57:39.012Z,18.00
2023-06-10T05:00:07.228Z,18.13
2023-06-10T05:02:33.957Z,17.98
2023-06-10T05:05:00.603Z,18.01
2023-06-10T05:07:27.119Z,18.23
2023-06-10T05:09:53.588Z,18.30
2023-06-10T05:12:20.037Z,18.56
2023-06-10T05:14:47.162Z,18.59
2023-06-10T05:17:14.059Z,18.81
2023-06-10T05:19:40.823Z,18.86
2023-06-10T05:22:07.573Z,18.81
2023-06-10T05:24:34.100Z,18.88
2023-06-10T05:27:00.560Z,18.80
2023-06-10T05:29:27.200Z,18.89
2023-06-10T05:31:53.788Z,18.98
2023-06-10T05:34:20.518Z,19.13
2023-06-10T05:36:47.304Z,19.12
2023-06-10T05:39:13.752Z,19.23
2023-06-10T05:41:40.298Z,19.34
2023-06-10T05:44:06.754Z,19.42
2023-06-10T05:46:33.467Z,19.49
2023-06-10T05:48:59.980Z,19.45
2023-06-10T05:51:26.808Z,19.61
2023-06-10T05:53:53.356Z,19.64
2023-06-10T05:56:19.824Z,19.75
2023-06-10T05:58:46.389Z,19.87
2023-06-10T06:01:12.926Z,19.83
2023-06-10T06:03:39.590Z,19.98
2023-06-10T06:06:06.398Z,19.99
2023-06-10T06:08:33.010Z,20.10
2023-06-10T06:10:59.661Z,20.15
2023-06-10T06:13:26.165Z,20.27
2023-06-10T06:15:52.835Z,20.42
2023-06-10T06:18:19.826Z,20.39
2023-06-10T06:20:46.401Z,20.42
2023-06-10T06:23:12.863Z,20.66
2023-06-10T06:25:40.103Z,20.71
2023-06-10T06:28:10.900Z,20.76
2023-06-10T06:30:37.491Z,20.84
2023-06-10T06:33:04.520Z,20.99
2023-06-10T06:35:33.076Z,21.19
2023-06-10T06:37:59.948Z,21.17
2023-06-10T06:40:26.567Z,21.25
2023-06-10T06:42:53.031Z,21.20
2023-06-10T06:45:19.525Z,21.40
2023-06-10T06:47:46.033Z,21.55
2023-06-10T06:50:12.651Z,21.54
2023-06-10T06:52:39.213Z,21.64
2023-06-10T06:55:06.294Z,21.59
2023-06-10T06:57:33.102Z,21.70
2023-06-10T06:59:59.606Z,22.00
2023-06-10T07:02:26.066Z,21.95
2023-06-10T07:04:52.659Z,22.25
2023-06-10T07:07:19.300Z,22.25
2023-06-10T07:09:45.728Z,22.08
2023-06-10T07:12:12.187Z,22.15
2023-06-10T07:14:38.658Z,22.33
2023-06-10T07:17:05.320Z,22.45
2023-06-10T07:19:31.867Z,22.46
2023-06-10T07:21:58.338Z,22.54
2023-06-10T07:24:24.782Z,22.77
2023-06-10T07:26:51.732Z,22.75
2023-06-10T07:29:18.213Z,23.07
2023-06-10T07:31:44.666Z,23.11
2023-06-10T07:34:11.204Z,23.28
2023-06-10T07:36:37.667Z,23.38
2023-06-10T07:39:04.142Z,23.43
2023-06-10T07:41:30.616Z,23.22
2023-06-10T07:43:57.190Z,23.39
2023-06-10T07:46:24.664Z,23.27
2023-06-10T07:48:51.222Z,23.20
2023-06-10T07:51:17.970Z,23.27
2023-06-10T07:53:44.473Z,23.24
2023-06-10T07:56:11.091Z,23.47
2023-06-10T07:58:37.559Z,23.68
2023-06-10T08:01:04.038Z,23.92
2023-06-10T08:03:30.550Z,24.22
2023-06-10T08:05:57.122Z,24.20
2023-06-10T08:08:23.558Z,23.85
2023-06-10T08:10:50.848Z,23.95
2023-06-10T08:13:17.409Z,24.16
2023-06-10T08:15:43.834Z,24.42
2023-06-10T08:18:10.432Z,24.42
2023-06-10T08:20:36.955Z,24.64
2023-06-10T08:23:03.448Z,24.74
2023-06-10T08:25:30.377Z,24.99
2023-06-10T08:27:58.563Z,25.03
2023-06-10T08:30:25.007Z,25.23
2023-06-10T08:32:52.895Z,25.38
2023-06-10T08:35:19.386Z,25.35
2023-06-10T08:37:45.852Z,25.26
2023-06-10T08:40:12.876Z,25.60
2023-06-10T08:42:52.803Z,25.62
2023-06-10T08:45:19.906Z,25.36
2023-06-10T08:47:49.755Z,25.57
2023-06-10T08:50:17.652Z,25.76
2023-06-10T08:52:45.658Z,26.17
2023-06-10T08:55:16.199Z,26.38
2023-06-10T08:57:43.723Z,26.35
2023-06-10T09:00:11.400Z,26.58
2023-06-10T09:02:39.185Z,26.26
2023-06-10T09:05:06.768Z,26.31
2023-06-10T09:07:35.434Z,26.68
2023-06-10T09:10:04.008Z,26.93
2023-06-10T09:12:30.910Z,26.67
2023-06-10T09:14:57.379Z,26.73
2023-06-10T09:17:23.855Z,26.77
2023-06-10T09:19:51.443Z,27.30
2023-06-10T09:22:17.892Z,27.46
2023-06-10T09:24:44.332Z,27.43
2023-06-10T09:27:10.820Z,27.57
2023-06-10T09:29:54.502Z,27.87
2023-06-10T09:32:21.608Z,27.90
2023-06-10T09:34:48.722Z,28.15
2023-06-10T09:37:21.837Z,28.06
2023-06-10T09:40:10.261Z,27.74
2023-06-10T09:42:39.193Z,27.64
2023-06-10T09:45:07.170Z,27.71
2023-06-10T09:47:33.792Z,27.90
2023-06-10T09:50:00.974Z,27.61
2023-06-10T09:52:30.286Z,27.97
2023-06-10T09:55:02.149Z,28.24
2023-06-10T09:57:36.764Z,28.42
2023-06-10T10:00:09.254Z,28.48
2023-06-10T10:02:50.490Z,28.99
2023-06-10T10:05:18.701Z,28.89
2023-06-10T10:07:46.066Z,28.73
2023-06-10T10:10:14.427Z,28.81
2023-06-10T10:12:41.615Z,29.31
2023-06-10T10:15:09.709Z,28.94
2023-06-10T10:18:07.736Z,29.26
2023-06-10T10:20:35.555Z,29.73
2023-06-10T10:23:04.419Z,29.83
2023-06-10T10:25:35.656Z,29.18
2023-06-10T10:28:05.290Z,29.36
2023-06-10T10:30:35.519Z,29.90
2023-06-10T10:33:09.408Z,30.10
2023-06-10T10:35:37.382Z,30.13
2023-06-10T10:38:04.609Z,30.25
2023-06-10T10:40:31.393Z,29.82
2023-06-10T10:42:59.424Z,30.04
2023-06-10T10:45:28.849Z,30.12
2023-06-10T10:47:58.859Z,29.88
2023-06-10T10:50:25.515Z,29.83
2023-06-10T10:52:57.463Z,29.93
2023-06-10T10:55:24.958Z,30.28
2023-06-10T10:57:57.803Z,30.37
2023-06-10T11:00:45.437Z,30.59
2023-06-10T11:03:20.147Z,30.71
2023-06-10T11:05:49.156Z,30.32
2023-06-10T11:08:16.922Z,30.52
2023-06-10T11:10:53.905Z,30.67
2023-06-10T11:13:21.725Z,30.23
2023-06-10T11:15:51.983Z,30.12
2023-06-10T11:18:27.771Z,30.23
2023-06-10T11:20:56.726Z,29.69
2023-06-10T11:23:29.317Z,30.15
2023-06-10T11:26:22.307Z,30.53
2023-06-10T11:28:48.728Z,30.64
2023-06-10T11:31:20.911Z,31.52
2023-06-10T11:33:49.248Z,31.03
2023-06-10T11:36:15.921Z,30.69
2023-06-10T11:38:42.402Z,30.78
2023-06-10T11:41:08.874Z,30.85
2023-06-10T11:43:35.387Z,31.00
2023-06-10T11:46:03.091Z,31.79
2023-06-10T11:48:31.447Z,32.52
2023-06-10T11:50:58.002Z,32.10
2023-06-10T11:53:24.467Z,31.41
2023-06-10T11:55:52.007Z,31.25
2023-06-10T11:58:23.027Z,31.20
2023-06-10T12:00:51.512Z,31.24
2023-06-10T12:03:18.864Z,30.96
2023-06-10T12:05:59.402Z,30.98
2023-06-10T12:08:26.583Z,31.32
2023-06-10T12:10:53.129Z,31.80
2023-06-10T12:13:19.578Z,32.18
2023-06-10T12:15:46.554Z,32.14
2023-06-10T12:18:20.592Z,32.34
2023-06-10T12:20:47.327Z,32.21
2023-06-10T12:23:14.379Z,32.46
2023-06-10T12:25:41.007Z,32.43
2023-06-10T12:28:11.362Z,32.86
2023-06-10T12:30:37.880Z,32.90
2023-06-10T12:33:04.387Z,33.21
2023-06-10T12:35:30.950Z,34.00
2023-06-10T12:38:02.182Z,33.18
2023-06-10T12:40:29.861Z,33.92
2023-06-10T12:42:57.268Z,34.94
2023-06-10T12:45:30.740Z,34.45
2023-06-10T12:48:10.132Z,34.15
2023-06-10T12:50:40.644Z,34.47
2023-06-10T12:53:07.591Z,34.73
2023-06-10T12:55:34.518Z,35.41
2023-06-10T12:58:02.746Z,34.60
2023-06-10T13:00:32.128Z,34.69
2023-06-10T13:03:02.041Z,34.44
2023-06-10T13:05:29.120Z,34.36
2023-06-10T13:07:55.889Z,35.30
2023-06-10T13:10:25.377Z,35.70
2023-06-10T13:12:53.307Z,37.05
2023-06-10T13:15:19.769Z,37.13
2023-06-10T13:17:52.375Z,36.84
2023-06-10T13:20:19.792Z,36.70
2023-06-10T13:22:46.360Z,35.37
2023-06-10T13:25:13.369Z,35.74
2023-06-10T13:27:40.349Z,36.00
2023-06-10T13:30:09.292Z,35.10
2023-06-10T13:32:36.637Z,34.69
2023-06-10T13:35:05.257Z,34.22
2023-06-10T13:37:32.008Z,33.70
2023-06-10T13:39:58.462Z,33.47
2023-06-10T13:42:27.345Z,33.90
2023-06-10T13:44:53.888Z,33.17
2023-06-10T13:47:20.751Z,33.30
2023-06-10T13:49:47.377Z,33.33
2023-06-10T13:52:13.911Z,33.25
2023-06-10T13:54:40.669Z,32.92
2023-06-10T13:57:07.626Z,33.37
2023-06-10T13:59:34.060Z,32.29
2023-06-10T14:02:01.483Z,32.13
2023-06-10T14:04:28.006Z,33.02
2023-06-10T14:06:54.513Z,32.72
2023-06-10T14:09:21.034Z,32.61
2023-06-10T14:11:48.585Z,31.95
2023-06-10T14:14:15.985Z,32.27
2023-06-10T14:16:43.687Z,32.66
2023-06-10T14:19:10.371Z,32.31
2023-06-10T14:21:36.817Z,31.65
2023-06-10T14:24:03.431Z,31.73
2023-06-10T14:26:30.093Z,31.28
2023-06-10T14:28:56.561Z,31.25
2023-06-10T14:31:23.029Z,31.26
2023-06-10T14:33:50.626Z,31.07
2023-06-10T14:36:17.236Z,31.18
2023-06-10T14:38:43.727Z,31.55
2023-06-10T14:41:10.240Z,30.95
2023-06-10T14:43:36.720Z,30.85
2023-06-10T14:46:03.283Z,31.00
2023-06-10T14:48:29.739Z,31.24
2023-06-10T14:50:56.332Z,30.97
2023-06-10T14:53:22.919Z,31.07
2023-06-10T14:55:49.480Z,31.34
2023-06-10T14:58:15.933Z,31.52
2023-06-10T15:00:42.359Z,31.04
2023-06-10T15:03:08.876Z,31.53
2023-06-10T15:05:35.770Z,31.13
2023-06-10T15:08:02.276Z,31.30
2023-06-10T15:10:28.837Z,31.05
2023-06-10T15:12:57.197Z,31.66
2023-06-10T15:15:24.561Z,31.73
2023-06-10T15:17:51.156Z,31.62
2023-06-10T15:20:17.832Z,31.32
2023-06-10T15:22:44.280Z,31.97
2023-06-10T15:25:21.492Z,31.13
2023-06-10T15:27:56.893Z,30.86
2023-06-10T15:30:23.456Z,30.89
2023-06-10T15:32:49.934Z,31.05
2023-06-10T15:35:16.609Z,31.27
2023-06-10T15:37:43.103Z,31.71
2023-06-10T15:40:09.757Z,31.64
2023-06-10T15:42:36.348Z,32.11
2023-06-10T15:45:02.824Z,31.66
2023-06-10T15:47:29.309Z,31.97
2023-06-10T15:49:55.810Z,31.55
2023-06-10T15:52:22.235Z,30.96
2023-06-10T15:54:48.664Z,30.86
2023-06-10T15:57:15.157Z,30.49
2023-06-10T15:59:41.615Z,30.31
2023-06-10T16:02:08.088Z,30.15
2023-06-10T16:04:34.792Z,30.34
2023-06-10T16:07:01.272Z,30.92
2023-06-10T16:09:27.763Z,31.11
2023-06-10T16:11:54.236Z,30.89
2023-06-10T16:14:20.861Z,31.23
2023-06-10T16:16:47.343Z,30.80
2023-06-10T16:19:13.940Z,30.66
2023-06-10T16:21:41.256Z,30.27
2023-06-10T16:24:11.891Z,30.14
2023-06-10T16:26:38.444Z,30.20
2023-06-10T16:29:04.897Z,29.78
2023-06-10T16:31:31.416Z,29.81
2023-06-10T16:33:57.947Z,29.73
2023-06-10T16:36:24.434Z,29.79
2023-06-10T16:38:51.611Z,29.42
2023-06-10T16:41:18.273Z,29.26
2023-06-10T16:43:44.755Z,29.55
2023-06-10T16:46:11.220Z,29.73
2023-06-10T16:48:37.700Z,30.00
2023-06-10T16:51:04.531Z,29.78
2023-06-10T16:53:30.988Z,29.76
2023-06-10T16:55:57.882Z,29.90
2023-06-10T16:58:25.509Z,29.99
2023-06-10T17:00:52.349Z,29.48
2023-06-10T17:03:18.867Z,29.49
2023-06-10T17:05:45.470Z,29.50
2023-06-10T17:08:11.973Z,29.39
2023-06-10T17:10:38.520Z,29.23
2023-06-10T17:13:04.965Z,29.28
2023-06-10T17:15:31.418Z,29.13
2023-06-10T17:17:57.980Z,28.97
2023-06-10T17:20:24.466Z,28.97
2023-06-10T17:22:51.118Z,29.06
2023-06-10T17:25:17.576Z,29.24
2023-06-10T17:27:44.078Z,29.56
2023-06-10T17:30:10.707Z,29.30
2023-06-10T17:32:38.198Z,29.24
2023-06-10T17:35:05.413Z,28.99
2023-06-10T17:37:31.967Z,28.86
2023-06-10T17:39:58.412Z,28.65
2023-06-10T17:42:24.906Z,28.68
2023-06-10T17:44:51.346Z,28.59
2023-06-10T17:47:17.843Z,29.00
2023-06-10T17:49:44.276Z,29.07
2023-06-10T17:52:10.990Z,28.95
2023-06-10T17:54:37.454Z,28.68
2023-06-10T17:57:04.131Z,28.61
2023-06-10T17:59:30.543Z,28.64
2023-06-10T18:01:57.876Z,28.48
2023-06-10T18:04:24.377Z,28.58
2023-06-10T18:06:50.865Z,28.24
2023-06-10T18:09:17.291Z,28.35
2023-06-10T18:11:43.730Z,28.25
2023-06-10T18:14:10.698Z,28.32
2023-06-10T18:16:37.236Z,28.55
2023-06-10T18:19:03.705Z,28.40
2023-06-10T18:21:30.394Z,28.31
2023-06-10T18:23:58.868Z,28.08
2023-06-10T18:26:25.881Z,27.76
2023-06-10T18:28:52.371Z,27.75
2023-06-10T18:31:18.884Z,27.93
2023-06-10T18:33:45.373Z,28.01
2023-06-10T18:36:11.860Z,27.84
2023-06-10T18:38:38.306Z,27.80
2023-06-10T18:41:04.753Z,27.84
2023-06-10T18:43:31.241Z,27.72
2023-06-10T18:45:58.952Z,27.62
2023-06-10T18:48:25.506Z,27.57
2023-06-10T18:50:52.000Z,27.64
2023-06-10T18:53:18.448Z,27.63
2023-06-10T18:55:44.945Z,27.32
2023-06-10T18:58:11.443Z,27.41
2023-06-10T19:00:37.870Z,27.55
2023-06-10T19:03:04.387Z,27.58
2023-06-10T19:05:31.073Z,27.42
2023-06-10T19:07:57.550Z,28.21
2023-06-10T19:10:24.033Z,28.43
2023-06-10T19:12:50.507Z,27.84
2023-06-10T19:15:16.968Z,27.60
2023-06-10T19:17:43.458Z,27.03
2023-06-10T19:20:11.108Z,26.87
2023-06-10T19:22:37.623Z,26.80
2023-06-10T19:25:06.349Z,26.58
2023-06-10T19:27:33.523Z,26.63
2023-06-10T19:30:01.696Z,26.43
2023-06-10T19:32:28.372Z,26.14
2023-06-10T19:34:54.829Z,26.24
2023-06-10T19:37:21.350Z,26.29
2023-06-10T19:39:47.840Z,26.43
2023-06-10T19:42:15.624Z,26.18
2023-06-10T19:44:42.395Z,26.31
2023-06-10T19:47:09.036Z,25.95
2023-06-10T19:49:35.678Z,25.92
2023-06-10T19:52:07.157Z,26.08
2023-06-10T19:54:34.996Z,26.14
2023-06-10T19:57:04.815Z,26.02
2023-06-10T19:59:31.293Z,25.87
2023-06-10T20:01:57.934Z,25.83
2023-06-10T20:04:24.552Z,25.80
2023-06-10T20:06:51.460Z,25.29
2023-06-10T20:09:17.914Z,25.23
2023-06-10T20:11:44.575Z,25.20
2023-06-10T20:14:11.102Z,25.16
2023-06-10T20:16:37.640Z,25.25
2023-06-10T20:19:04.177Z,25.04
2023-06-10T20:21:30.720Z,25.04
2023-06-10T20:23:57.332Z,24.71
2023-06-10T20:26:24.333Z,24.87
2023-06-10T20:28:51.019Z,24.55
2023-06-10T20:31:17.491Z,24.74
2023-06-10T20:33:43.968Z,24.70
2023-06-10T20:36:10.717Z,24.71
2023-06-10T20:38:37.196Z,24.61
2023-06-10T20:41:03.654Z,24.50
2023-06-10T20:43:30.187Z,24.31
2023-06-10T20:45:57.354Z,24.50
2023-06-10T20:48:23.966Z,24.40
2023-06-10T20:50:50.473Z,24.47
2023-06-10T20:53:17.056Z,24.02
2023-06-10T20:55:43.551Z,24.02
2023-06-10T20:58:10.637Z,24.15
2023-06-10T21:00:37.155Z,24.07
2023-06-10T21:03:03.731Z,23.92
2023-06-10T21:05:30.440Z,24.04
2023-06-10T21:07:56.918Z,23.93
2023-06-10T21:10:23.491Z,24.04
2023-06-10T21:12:50.046Z,23.96
2023-06-10T21:15:17.618Z,23.72
2023-06-10T21:17:44.347Z,23.61
2023-06-10T21:20:11.881Z,23.51
2023-06-10T21:22:38.431Z,23.45
2023-06-10T21:25:05.412Z,23.31
2023-06-10T21:27:31.903Z,23.13
2023-06-10T21:29:58.358Z,22.99
2023-06-10T21:32:25.259Z,23.03
2023-06-10T21:34:51.779Z,23.08
2023-06-10T21:37:18.267Z,22.99
2023-06-10T21:39:44.727Z,22.88
2023-06-10T21:42:11.768Z,22.77
2023-06-10T21:44:38.249Z,22.74
2023-06-10T21:47:04.939Z,22.71
2023-06-10T21:49:31.406Z,22.56
2023-06-10T21:51:57.942Z,22.49
2023-06-10T21:54:24.438Z,22.52
2023-06-10T21:56:51.040Z,22.42
2023-06-10T21:59:19.099Z,22.15
2023-06-10T22:01:45.689Z,21.91
2023-06-10T22:04:12.242Z,21.86
2023-06-10T22:06:38.822Z,21.53
2023-06-10T22:09:05.732Z,21.52
2023-06-10T22:11:32.232Z,21.75
2023-06-10T22:13:58.699Z,21.76
2023-06-10T22:16:25.295Z,21.68
2023-06-10T22:18:51.765Z,21.73
2023-06-10T22:21:18.216Z,21.73
2023-06-10T22:23:44.654Z,21.78
2023-06-10T22:26:11.130Z,21.81
2023-06-10T22:28:37.696Z,21.84
2023-06-10T22:31:04.153Z,21.90
2023-06-10T22:33:30.672Z,21.83
2023-06-10T22:35:57.131Z,21.89
2023-06-10T22:38:23.616Z,21.90
2023-06-10T22:40:50.054Z,21.75
2023-06-10T22:43:16.491Z,21.63
2023-06-10T22:45:42.939Z,21.43
2023-06-10T22:48:09.484Z,21.57
2023-06-10T22:50:36.212Z,21.40
2023-06-10T22:53:02.657Z,21.55
2023-06-10T22:55:29.146Z,21.51
2023-06-10T22:57:55.652Z,21.23
2023-06-10T23:00:22.226Z,20.98
2023-06-10T23:02:48.754Z,21.10
2023-06-10T23:05:15.418Z,21.21
2023-06-10T23:07:41.981Z,21.04
2023-06-10T23:10:08.943Z,21.20
2023-06-10T23:12:36.102Z,21.19
2023-06-10T23:15:03.666Z,21.11
2023-06-10T23:17:30.704Z,20.93
2023-06-10T23:19:59.517Z,21.01
2023-06-10T23:22:26.757Z,20.95
2023-06-10T23:24:57.252Z,21.04
2023-06-10T23:27:23.793Z,21.05
2023-06-10T23:32:20.791Z,21.01
2023-06-10T23:34:47.385Z,20.76
2023-06-10T23:37:14.283Z,20.82
2023-06-10T23:39:45.420Z,20.78
2023-06-10T23:42:12.035Z,20.59
2023-06-10T23:44:38.522Z,20.48
2023-06-10T23:47:05.253Z,20.26
2023-06-10T23:49:31.697Z,20.28
2023-06-10T23:51:58.126Z,20.55
2023-06-10T23:54:24.609Z,20.59
2023-06-10T23:56:51.070Z,20.60
2023-06-10T23:59:17.567Z,20.54
